createdAt,value
2022-07-29T00:00:59.823Z,68.45
2022-07-29T00:01:59.820Z,69.82
2022-07-29T00:02:59.893Z,69.42
2022-07-29T00:03:59.872Z,69.22
2022-07-29T00:04:59.824Z,69.15
2022-07-29T00:06:00.837Z,66.81
2022-07-29T00:06:59.823Z,68.65
2022-07-29T00:07:59.818Z,68.35
2022-07-29T00:08:59.817Z,69.65
2022-07-29T00:09:59.816Z,69.85
2022-07-29T00:10:59.817Z,70.16
2022-07-29T00:11:59.816Z,70.16
2022-07-29T00:12:59.817Z,69.76
2022-07-29T00:13:59.814Z,70.36
2022-07-29T00:14:59.814Z,69.85
2022-07-29T00:16:04.909Z,69.65
2022-07-29T00:16:59.816Z,69.56
2022-07-29T00:17:59.815Z,69.06
2022-07-29T00:19:02.276Z,69.56
2022-07-29T00:19:59.810Z,70.76
2022-07-29T00:20:59.816Z,71.26
2022-07-29T00:21:59.817Z,70.56
2022-07-29T00:22:59.813Z,69.76
2022-07-29T00:23:59.810Z,69.45
2022-07-29T00:24:59.815Z,70.26
2022-07-29T00:25:59.809Z,70.36
2022-07-29T00:26:59.809Z,70.66
2022-07-29T00:27:59.807Z,71.77
2022-07-29T00:29:31.115Z,70.86
2022-07-29T00:29:59.808Z,71.06
2022-07-29T00:30:59.809Z,70.16
2022-07-29T00:31:59.845Z,69.85
2022-07-29T00:32:59.812Z,69.85
2022-07-29T00:33:59.806Z,69.85
2022-07-29T00:34:59.808Z,70.26
2022-07-29T00:35:59.810Z,69.56
2022-07-29T00:36:59.809Z,69.96
2022-07-29T00:37:59.807Z,70.26
2022-07-29T00:38:59.806Z,69.25
2022-07-29T00:39:59.809Z,69.76
2022-07-29T00:40:59.806Z,70.46
2022-07-29T00:41:59.805Z,66.74
2022-07-29T00:42:59.807Z,69.15
2022-07-29T00:43:59.803Z,69.65
2022-07-29T00:44:59.806Z,69.99
2022-07-29T00:45:59.802Z,69.85
2022-07-29T00:46:59.830Z,67.44
2022-07-29T00:47:59.806Z,69.15
2022-07-29T00:48:59.837Z,69.49
2022-07-29T00:49:59.801Z,68.25
2022-07-29T00:50:59.799Z,69.79
2022-07-29T00:51:59.799Z,69.96
2022-07-29T00:52:59.800Z,70.29
2022-07-29T00:53:59.798Z,67.55
2022-07-29T00:55:02.622Z,69.49
2022-07-29T00:55:59.798Z,69.25
2022-07-29T00:56:59.803Z,69.76
2022-07-29T00:57:59.798Z,70.29
2022-07-29T00:58:59.805Z,69.96
2022-07-29T00:59:59.805Z,70.39
2022-07-29T01:00:59.879Z,69.85
2022-07-29T01:01:59.839Z,69.79
2022-07-29T01:02:59.799Z,69.49
2022-07-29T01:03:59.794Z,69.06
2022-07-29T01:04:59.796Z,69.56
2022-07-29T01:05:59.796Z,70.29
2022-07-29T01:06:59.792Z,71.30
2022-07-29T01:07:59.795Z,71.80
2022-07-29T01:08:59.796Z,72.00
2022-07-29T01:09:59.797Z,71.47
2022-07-29T01:10:59.791Z,70.86
2022-07-29T01:11:59.798Z,71.56
2022-07-29T01:12:59.792Z,71.20
2022-07-29T01:13:59.793Z,71.80
2022-07-29T01:14:59.794Z,71.97
2022-07-29T01:15:59.826Z,72.87
2022-07-29T01:16:59.789Z,71.47
2022-07-29T01:17:59.789Z,72.47
2022-07-29T01:18:59.787Z,69.85
2022-07-29T01:19:59.788Z,70.26
2022-07-29T01:20:59.788Z,71.26
2022-07-29T01:21:59.787Z,71.20
2022-07-29T01:22:59.787Z,70.46
2022-07-29T01:23:59.787Z,70.16
2022-07-29T01:24:59.787Z,71.16
2022-07-29T01:25:59.783Z,70.29
2022-07-29T01:26:59.788Z,70.96
2022-07-29T01:27:59.785Z,72.47
2022-07-29T01:28:59.786Z,72.20
2022-07-29T01:29:59.790Z,72.30
2022-07-29T01:30:59.859Z,71.60
2022-07-29T01:32:01.095Z,71.87
2022-07-29T01:32:59.794Z,72.27
2022-07-29T01:33:59.787Z,71.90
2022-07-29T01:34:59.783Z,71.06
2022-07-29T01:35:59.783Z,70.39
2022-07-29T01:36:59.785Z,70.39
2022-07-29T01:37:59.780Z,70.09
2022-07-29T01:38:59.782Z,69.49
2022-07-29T01:39:59.778Z,71.20
2022-07-29T01:40:59.782Z,70.29
2022-07-29T01:41:59.778Z,70.29
2022-07-29T01:42:59.778Z,71.20
2022-07-29T01:43:59.778Z,70.39
2022-07-29T01:44:59.780Z,69.59
2022-07-29T01:45:59.786Z,72.03
2022-07-29T01:46:59.858Z,71.60
2022-07-29T01:47:59.779Z,72.00
2022-07-29T01:48:59.810Z,71.00
2022-07-29T01:49:59.777Z,69.79
2022-07-29T01:50:59.777Z,71.09
2022-07-29T01:51:59.794Z,71.80
2022-07-29T01:52:59.773Z,72.10
2022-07-29T01:53:59.774Z,72.14
2022-07-29T01:54:59.771Z,72.14
2022-07-29T01:55:59.775Z,71.73
2022-07-29T01:56:59.773Z,71.94
2022-07-29T01:57:59.774Z,72.54
2022-07-29T01:58:59.767Z,70.53
2022-07-29T01:59:59.769Z,71.13
2022-07-29T02:00:59.768Z,70.96
2022-07-29T02:01:59.849Z,70.96
2022-07-29T02:02:59.774Z,70.32
2022-07-29T02:03:59.771Z,71.33
2022-07-29T02:04:59.787Z,70.83
2022-07-29T02:05:59.768Z,71.26
2022-07-29T02:06:59.767Z,72.47
2022-07-29T02:07:59.765Z,72.91
2022-07-29T02:08:59.763Z,72.41
2022-07-29T02:09:59.766Z,73.72
2022-07-29T02:10:59.769Z,74.52
2022-07-29T02:11:59.765Z,73.01
2022-07-29T02:12:59.763Z,73.75
2022-07-29T02:13:59.762Z,75.16
2022-07-29T02:14:59.761Z,75.06
2022-07-29T02:15:59.802Z,74.15
2022-07-29T02:16:59.759Z,74.05
2022-07-29T02:18:00.266Z,73.05
2022-07-29T02:18:59.757Z,72.98
2022-07-29T02:19:59.757Z,72.74
2022-07-29T02:20:59.759Z,72.74
2022-07-29T02:21:59.764Z,71.33
2022-07-29T02:22:59.760Z,73.55
2022-07-29T02:23:59.758Z,75.36
2022-07-29T02:24:59.755Z,75.06
2022-07-29T02:25:59.753Z,74.05
2022-07-29T02:26:59.750Z,72.74
2022-07-29T02:27:59.753Z,73.95
2022-07-29T02:28:59.749Z,76.17
2022-07-29T02:29:59.752Z,75.87
2022-07-29T02:30:59.838Z,73.25
2022-07-29T02:31:59.748Z,73.95
2022-07-29T02:32:59.747Z,73.88
2022-07-29T02:33:59.748Z,73.79
2022-07-29T02:34:59.743Z,74.08
2022-07-29T02:35:59.749Z,74.39
2022-07-29T02:36:59.743Z,74.99
2022-07-29T02:37:59.744Z,73.68
2022-07-29T02:38:59.742Z,73.99
2022-07-29T02:39:59.744Z,73.58
2022-07-29T02:40:59.740Z,74.02
2022-07-29T02:41:59.743Z,74.19
2022-07-29T02:42:59.738Z,73.28
2022-07-29T02:43:59.739Z,72.98
2022-07-29T02:44:59.744Z,74.69
2022-07-29T02:45:59.792Z,74.79
2022-07-29T02:46:59.848Z,74.90
2022-07-29T02:47:59.736Z,75.20
2022-07-29T02:48:59.842Z,75.13
2022-07-29T02:50:00.594Z,73.42
2022-07-29T02:50:59.731Z,72.61
2022-07-29T02:51:59.736Z,71.87
2022-07-29T02:52:59.732Z,72.51
2022-07-29T02:53:59.735Z,72.88
2022-07-29T02:54:59.725Z,73.01
2022-07-29T02:55:59.726Z,71.26
2022-07-29T02:56:59.729Z,72.07
2022-07-29T02:57:59.728Z,72.88
2022-07-29T02:58:59.729Z,71.97
2022-07-29T02:59:59.732Z,71.77
2022-07-29T03:00:59.737Z,72.07
2022-07-29T03:01:59.816Z,70.36
2022-07-29T03:02:59.718Z,70.26
2022-07-29T03:03:59.721Z,72.78
2022-07-29T03:04:59.845Z,71.37
2022-07-29T03:05:59.719Z,71.23
2022-07-29T03:06:59.735Z,72.34
2022-07-29T03:07:59.716Z,72.74
2022-07-29T03:08:59.720Z,73.05
2022-07-29T03:09:59.721Z,72.14
2022-07-29T03:10:59.712Z,72.54
2022-07-29T03:11:59.714Z,72.27
2022-07-29T03:12:59.711Z,73.05
2022-07-29T03:13:59.711Z,71.17
2022-07-29T03:14:59.714Z,71.87
2022-07-29T03:15:59.759Z,71.87
2022-07-29T03:16:59.725Z,71.47
2022-07-29T03:17:59.705Z,71.06
2022-07-29T03:18:59.706Z,71.57
2022-07-29T03:19:59.709Z,71.47
2022-07-29T03:20:59.701Z,71.37
2022-07-29T03:21:59.705Z,70.15
2022-07-29T03:22:59.698Z,71.57
2022-07-29T03:23:59.699Z,71.87
2022-07-29T03:24:59.708Z,71.26
2022-07-29T03:25:59.701Z,72.17
2022-07-29T03:26:59.705Z,71.77
2022-07-29T03:27:59.695Z,70.59
2022-07-29T03:28:59.712Z,71.30
2022-07-29T03:29:59.693Z,71.70
2022-07-29T03:30:59.729Z,71.20
2022-07-29T03:31:59.692Z,70.89
2022-07-29T03:32:59.686Z,72.41
2022-07-29T03:33:59.687Z,74.32
2022-07-29T03:34:59.684Z,73.52
2022-07-29T03:35:59.685Z,74.52
2022-07-29T03:36:59.684Z,74.52
2022-07-29T03:37:59.681Z,74.36
2022-07-29T03:38:59.679Z,73.85
2022-07-29T03:39:59.679Z,74.46
2022-07-29T03:40:59.682Z,74.87
2022-07-29T03:41:59.678Z,74.16
2022-07-29T03:42:59.681Z,73.65
2022-07-29T03:43:59.676Z,74.09
2022-07-29T03:44:59.672Z,74.29
2022-07-29T03:45:59.729Z,72.75
2022-07-29T03:46:59.672Z,73.69
2022-07-29T03:48:00.964Z,74.40
2022-07-29T03:48:59.741Z,73.89
2022-07-29T03:49:59.667Z,74.69
2022-07-29T03:50:59.662Z,73.18
2022-07-29T03:51:59.666Z,74.49
2022-07-29T03:52:59.659Z,74.46
2022-07-29T03:53:59.664Z,73.18
2022-07-29T03:54:59.663Z,72.78
2022-07-29T03:55:59.769Z,73.18
2022-07-29T03:56:59.661Z,74.49
2022-07-29T03:57:59.655Z,73.69
2022-07-29T03:58:59.740Z,72.78
2022-07-29T03:59:59.654Z,74.09
2022-07-29T04:00:59.660Z,74.09
2022-07-29T04:01:59.776Z,74.60
2022-07-29T04:02:59.728Z,74.63
2022-07-29T04:03:59.707Z,73.82
2022-07-29T04:04:59.638Z,74.02
2022-07-29T04:05:59.636Z,74.43
2022-07-29T04:06:59.634Z,74.22
2022-07-29T04:07:59.638Z,74.63
2022-07-29T04:08:59.633Z,74.02
2022-07-29T04:09:59.634Z,74.53
2022-07-29T04:10:59.626Z,74.73
2022-07-29T04:12:03.542Z,74.53
2022-07-29T04:12:59.624Z,75.13
2022-07-29T04:13:59.633Z,74.13
2022-07-29T04:14:59.618Z,74.22
2022-07-29T04:15:59.666Z,74.43
2022-07-29T04:16:59.613Z,74.43
2022-07-29T04:17:59.661Z,74.63
2022-07-29T04:19:59.625Z,73.93
2022-07-29T04:20:59.606Z,74.43
2022-07-29T04:21:59.617Z,74.53
2022-07-29T04:22:59.802Z,74.33
2022-07-29T04:23:59.598Z,73.93
2022-07-29T04:25:03.774Z,74.43
2022-07-29T04:25:59.594Z,74.66
2022-07-29T04:26:59.590Z,74.22
2022-07-29T04:27:59.592Z,74.53
2022-07-29T04:28:59.586Z,74.73
2022-07-29T04:29:59.589Z,75.24
2022-07-29T04:30:59.693Z,74.63
2022-07-29T04:31:59.583Z,74.53
2022-07-29T04:32:59.588Z,75.24
2022-07-29T04:33:59.578Z,74.63
2022-07-29T04:34:59.573Z,74.37
2022-07-29T04:35:59.573Z,74.53
2022-07-29T04:36:59.568Z,74.63
2022-07-29T04:37:59.566Z,74.33
2022-07-29T04:38:59.562Z,74.93
2022-07-29T04:39:59.562Z,74.63
2022-07-29T04:40:59.609Z,74.53
2022-07-29T04:41:59.557Z,74.53
2022-07-29T04:42:59.550Z,75.13
2022-07-29T04:43:59.551Z,75.44
2022-07-29T04:44:59.548Z,76.04
2022-07-29T04:45:59.660Z,76.15
2022-07-29T04:46:59.542Z,75.78
2022-07-29T04:47:59.548Z,76.28
2022-07-29T04:48:59.613Z,76.08
2022-07-29T04:49:59.540Z,75.37
2022-07-29T04:50:59.684Z,75.37
2022-07-29T04:51:59.532Z,76.04
2022-07-29T04:52:59.529Z,75.98
2022-07-29T04:53:59.527Z,75.54
2022-07-29T04:54:59.523Z,75.68
2022-07-29T04:55:59.521Z,75.27
2022-07-29T04:56:59.523Z,75.95
2022-07-29T04:57:59.522Z,75.24
2022-07-29T04:58:59.514Z,75.68
2022-07-29T04:59:59.519Z,75.57
2022-07-29T05:00:59.508Z,75.54
2022-07-29T05:01:59.594Z,75.17
2022-07-29T05:02:59.574Z,74.77
2022-07-29T05:04:00.677Z,74.84
2022-07-29T05:04:59.501Z,74.66
2022-07-29T05:05:59.505Z,74.73
2022-07-29T05:06:59.500Z,74.73
2022-07-29T05:07:59.494Z,75.13
2022-07-29T05:08:59.495Z,75.04
2022-07-29T05:09:59.487Z,74.43
2022-07-29T05:10:59.483Z,74.43
2022-07-29T05:11:59.487Z,74.84
2022-07-29T05:12:59.483Z,74.46
2022-07-29T05:13:59.477Z,74.13
2022-07-29T05:14:59.476Z,74.73
2022-07-29T05:15:59.544Z,74.22
2022-07-29T05:16:59.492Z,74.53
2022-07-29T05:17:59.470Z,74.13
2022-07-29T05:18:59.468Z,73.93
2022-07-29T05:19:59.465Z,74.13
2022-07-29T05:20:59.462Z,74.13
2022-07-29T05:21:59.460Z,74.43
2022-07-29T05:22:59.663Z,74.73
2022-07-29T05:23:59.455Z,74.73
2022-07-29T05:24:59.450Z,74.13
2022-07-29T05:25:59.451Z,74.22
2022-07-29T05:26:59.447Z,74.13
2022-07-29T05:27:59.447Z,74.33
2022-07-29T05:28:59.443Z,74.40
2022-07-29T05:29:59.438Z,74.43
2022-07-29T05:30:59.498Z,75.20
2022-07-29T05:31:59.442Z,74.49
2022-07-29T05:32:59.434Z,74.49
2022-07-29T05:33:59.434Z,75.31
2022-07-29T05:34:59.426Z,76.11
2022-07-29T05:36:00.814Z,74.90
2022-07-29T05:36:59.422Z,74.19
2022-07-29T05:37:59.420Z,74.49
2022-07-29T05:38:59.418Z,72.75
2022-07-29T05:39:59.421Z,73.49
2022-07-29T05:40:59.414Z,72.78
2022-07-29T05:41:59.413Z,73.65
2022-07-29T05:42:59.409Z,74.26
2022-07-29T05:43:59.411Z,74.46
2022-07-29T05:44:59.407Z,74.36
2022-07-29T05:45:59.554Z,73.45
2022-07-29T05:46:59.412Z,74.36
2022-07-29T05:47:59.400Z,73.18
2022-07-29T05:48:59.468Z,74.56
2022-07-29T05:49:59.402Z,74.56
2022-07-29T05:50:59.393Z,74.09
2022-07-29T05:51:59.394Z,73.65
2022-07-29T05:52:59.397Z,74.46
2022-07-29T05:53:59.389Z,73.15
2022-07-29T05:54:59.387Z,72.85
2022-07-29T05:55:59.400Z,72.64
2022-07-29T05:56:59.383Z,72.85
2022-07-29T05:57:59.384Z,72.95
2022-07-29T05:58:59.377Z,73.05
2022-07-29T05:59:59.381Z,73.72
2022-07-29T06:00:59.462Z,72.71
2022-07-29T06:01:59.426Z,72.81
2022-07-29T06:02:59.382Z,73.22
2022-07-29T06:03:59.450Z,74.43
2022-07-29T06:04:59.416Z,75.03
2022-07-29T06:05:59.370Z,73.42
2022-07-29T06:06:59.366Z,73.72
2022-07-29T06:07:59.361Z,74.02
2022-07-29T06:08:59.375Z,75.43
2022-07-29T06:09:59.359Z,75.10
2022-07-29T06:10:59.361Z,74.52
2022-07-29T06:11:59.355Z,75.90
2022-07-29T06:12:59.360Z,75.50
2022-07-29T06:13:59.357Z,76.40
2022-07-29T06:14:59.351Z,77.31
2022-07-29T06:15:59.483Z,77.31
2022-07-29T06:16:59.348Z,77.11
2022-07-29T06:18:01.273Z,77.62
2022-07-29T06:18:59.342Z,77.92
2022-07-29T06:19:59.341Z,78.32
2022-07-29T06:20:59.342Z,78.83
2022-07-29T06:21:59.342Z,79.23
2022-07-29T06:22:59.750Z,78.52
2022-07-29T06:23:59.338Z,78.89
2022-07-29T06:24:59.338Z,79.03
2022-07-29T06:25:59.333Z,78.49
2022-07-29T06:26:59.330Z,78.89
2022-07-29T06:27:59.330Z,78.49
2022-07-29T06:28:59.336Z,78.49
2022-07-29T06:29:59.326Z,78.19
2022-07-29T06:30:59.420Z,78.28
2022-07-29T06:31:59.323Z,78.28
2022-07-29T06:32:59.338Z,78.69
2022-07-29T06:33:59.339Z,79.23
2022-07-29T06:35:31.928Z,79.29
2022-07-29T06:35:59.320Z,79.69
2022-07-29T06:36:59.318Z,79.63
2022-07-29T06:37:59.828Z,79.33
2022-07-29T06:38:59.316Z,78.92
2022-07-29T06:39:59.723Z,79.43
2022-07-29T06:40:59.312Z,79.43
2022-07-29T06:41:59.315Z,79.90
2022-07-29T06:42:59.308Z,79.39
2022-07-29T06:43:59.310Z,79.60
2022-07-29T06:44:59.310Z,79.90
2022-07-29T06:45:59.339Z,80.40
2022-07-29T06:46:59.308Z,80.50
2022-07-29T06:47:59.301Z,80.10
2022-07-29T06:48:59.379Z,79.09
2022-07-29T06:49:59.300Z,78.39
2022-07-29T06:50:59.298Z,78.99
2022-07-29T06:51:59.295Z,79.19
2022-07-29T06:52:59.299Z,79.09
2022-07-29T06:54:02.012Z,79.03
2022-07-29T06:54:59.300Z,78.49
2022-07-29T06:55:59.297Z,78.59
2022-07-29T06:56:59.296Z,78.59
2022-07-29T06:57:59.290Z,79.49
2022-07-29T06:58:59.290Z,79.29
2022-07-29T06:59:59.287Z,79.29
2022-07-29T07:00:59.396Z,79.39
2022-07-29T07:01:59.342Z,79.29
2022-07-29T07:02:59.287Z,79.69
2022-07-29T07:03:59.281Z,80.20
2022-07-29T07:04:59.282Z,79.25
2022-07-29T07:05:59.279Z,78.69
2022-07-29T07:06:59.283Z,79.16
2022-07-29T07:07:59.277Z,77.28
2022-07-29T07:08:59.280Z,77.68
2022-07-29T07:09:59.279Z,78.19
2022-07-29T07:10:59.277Z,78.96
2022-07-29T07:11:59.273Z,79.56
2022-07-29T07:12:59.272Z,80.06
2022-07-29T07:14:03.105Z,80.77
2022-07-29T07:14:59.274Z,80.87
2022-07-29T07:15:59.287Z,81.47
2022-07-29T07:16:59.369Z,81.27
2022-07-29T07:17:59.326Z,80.97
2022-07-29T07:18:59.274Z,81.27
2022-07-29T07:19:59.263Z,81.47
2022-07-29T07:20:59.275Z,80.97
2022-07-29T07:21:59.281Z,79.66
2022-07-29T07:22:59.711Z,79.66
2022-07-29T07:23:59.272Z,79.56
2022-07-29T07:24:59.275Z,78.65
2022-07-29T07:25:59.260Z,77.64
2022-07-29T07:26:59.258Z,76.74
2022-07-29T07:27:59.262Z,76.74
2022-07-29T07:28:59.255Z,78.45
2022-07-29T07:29:59.256Z,79.05
2022-07-29T07:30:59.253Z,80.26
2022-07-29T07:32:01.055Z,81.17
2022-07-29T07:32:59.249Z,81.47
2022-07-29T07:33:59.252Z,82.78
2022-07-29T07:34:59.251Z,85.20
2022-07-29T07:35:59.246Z,85.40
2022-07-29T07:36:59.267Z,86.21
2022-07-29T07:37:59.249Z,87.01
2022-07-29T07:38:59.241Z,87.92
2022-07-29T07:39:59.242Z,87.92
2022-07-29T07:40:59.240Z,87.05
2022-07-29T07:41:59.241Z,85.94
2022-07-29T07:42:59.241Z,85.68
2022-07-29T07:43:59.241Z,86.99
2022-07-29T07:45:13.117Z,87.96
2022-07-29T07:45:59.373Z,88.00
2022-07-29T07:46:59.236Z,88.70
2022-07-29T07:47:59.234Z,87.90
2022-07-29T07:48:59.325Z,86.02
2022-07-29T07:49:59.229Z,85.92
2022-07-29T07:50:59.228Z,85.52
2022-07-29T07:51:59.230Z,87.13
2022-07-29T07:52:59.229Z,87.34
2022-07-29T07:53:59.227Z,89.35
2022-07-29T07:54:59.226Z,88.54
2022-07-29T07:56:14.678Z,88.48
2022-07-29T07:56:59.223Z,87.98
2022-07-29T07:57:59.308Z,88.89
2022-07-29T07:58:59.221Z,90.04
2022-07-29T07:59:59.236Z,90.65
2022-07-29T08:00:59.280Z,91.05
2022-07-29T08:01:59.355Z,92.06
2022-07-29T08:02:59.239Z,92.22
2022-07-29T08:03:59.214Z,92.36
2022-07-29T08:04:59.214Z,92.22
2022-07-29T08:05:59.209Z,90.95
2022-07-29T08:06:59.218Z,92.06
2022-07-29T08:07:59.211Z,92.06
2022-07-29T08:09:19.550Z,91.96
2022-07-29T08:09:59.206Z,92.57
2022-07-29T08:10:59.202Z,92.57
2022-07-29T08:11:59.201Z,91.71
2022-07-29T08:12:59.201Z,92.46
2022-07-29T08:13:59.198Z,92.46
2022-07-29T08:14:59.198Z,92.42
2022-07-29T08:15:59.281Z,92.93
2022-07-29T08:16:59.265Z,93.02
2022-07-29T08:17:59.193Z,93.13
2022-07-29T08:18:59.196Z,92.58
2022-07-29T08:19:59.191Z,93.29
2022-07-29T08:20:59.193Z,92.47
2022-07-29T08:21:59.190Z,91.82
2022-07-29T08:22:59.390Z,90.70
2022-07-29T08:24:02.929Z,90.45
2022-07-29T08:24:59.188Z,91.05
2022-07-29T08:25:59.184Z,91.15
2022-07-29T08:26:59.183Z,91.76
2022-07-29T08:27:59.179Z,92.50
2022-07-29T08:28:59.180Z,92.61
2022-07-29T08:29:59.178Z,92.41
2022-07-29T08:30:59.177Z,92.30
2022-07-29T08:31:59.182Z,92.91
2022-07-29T08:32:59.223Z,93.92
2022-07-29T08:33:59.172Z,94.12
2022-07-29T08:34:59.172Z,94.53
2022-07-29T08:35:59.168Z,94.63
2022-07-29T08:36:59.179Z,94.02
2022-07-29T08:37:59.164Z,94.63
2022-07-29T08:38:59.165Z,94.79
2022-07-29T08:39:59.163Z,94.89
2022-07-29T08:40:59.162Z,95.09
2022-07-29T08:41:59.332Z,95.09
2022-07-29T08:42:59.159Z,94.68
2022-07-29T08:43:59.155Z,95.09
2022-07-29T08:44:59.155Z,95.09
2022-07-29T08:45:59.308Z,94.84
2022-07-29T08:46:59.151Z,95.39
2022-07-29T08:47:59.172Z,95.29
2022-07-29T08:48:59.215Z,96.25
2022-07-29T08:49:59.187Z,96.15
2022-07-29T08:50:59.220Z,96.56
2022-07-29T08:51:59.564Z,96.45
2022-07-29T08:53:00.065Z,96.56
2022-07-29T08:53:59.141Z,96.66
2022-07-29T08:54:59.141Z,96.66
2022-07-29T08:55:59.139Z,96.86
2022-07-29T08:56:59.157Z,96.91
2022-07-29T08:57:59.135Z,96.15
2022-07-29T08:58:59.134Z,95.79
2022-07-29T09:00:01.522Z,95.49
2022-07-29T09:00:59.145Z,95.39
2022-07-29T09:01:59.527Z,94.68
2022-07-29T09:02:59.129Z,95.19
2022-07-29T09:03:59.217Z,95.59
2022-07-29T09:04:59.130Z,95.39
2022-07-29T09:05:59.124Z,94.99
2022-07-29T09:06:59.122Z,94.28
2022-07-29T09:07:59.127Z,94.28
2022-07-29T09:08:59.121Z,94.38
2022-07-29T09:09:59.118Z,94.18
2022-07-29T09:10:59.138Z,93.21
2022-07-29T09:11:59.118Z,93.68
2022-07-29T09:12:59.115Z,93.57
2022-07-29T09:13:59.111Z,93.48
2022-07-29T09:14:59.113Z,93.77
2022-07-29T09:15:59.140Z,93.98
2022-07-29T09:16:59.214Z,93.88
2022-07-29T09:17:59.108Z,94.08
2022-07-29T09:18:59.111Z,94.18
2022-07-29T09:19:59.107Z,94.04
2022-07-29T09:20:59.102Z,94.08
2022-07-29T09:21:59.102Z,94.34
2022-07-29T09:22:59.551Z,94.13
2022-07-29T09:23:59.097Z,94.44
2022-07-29T09:24:59.109Z,94.54
2022-07-29T09:25:59.099Z,94.19
2022-07-29T09:26:59.099Z,93.93
2022-07-29T09:27:59.092Z,94.29
2022-07-29T09:28:59.092Z,94.49
2022-07-29T09:29:59.095Z,94.90
2022-07-29T09:30:59.087Z,95.00
2022-07-29T09:31:59.175Z,94.90
2022-07-29T09:32:59.102Z,95.20
2022-07-29T09:33:59.082Z,95.10
2022-07-29T09:34:59.084Z,94.70
2022-07-29T09:35:59.277Z,94.90
2022-07-29T09:36:59.194Z,95.10
2022-07-29T09:37:59.106Z,95.00
2022-07-29T09:38:59.080Z,95.00
2022-07-29T09:39:59.075Z,94.75
2022-07-29T09:40:59.882Z,94.49
2022-07-29T09:41:59.077Z,94.95
2022-07-29T09:42:59.074Z,94.95
2022-07-29T09:43:59.069Z,94.55
2022-07-29T09:44:59.068Z,94.85
2022-07-29T09:45:59.067Z,94.55
2022-07-29T09:46:59.312Z,94.95
2022-07-29T09:47:59.066Z,94.55
2022-07-29T09:48:59.083Z,94.65
2022-07-29T09:49:59.157Z,94.95
2022-07-29T09:50:59.067Z,94.65
2022-07-29T09:51:59.066Z,94.25
2022-07-29T09:52:59.060Z,94.15
2022-07-29T09:53:59.062Z,93.95
2022-07-29T09:54:59.053Z,94.45
2022-07-29T09:55:59.056Z,94.45
2022-07-29T09:56:59.065Z,94.25
2022-07-29T09:57:59.051Z,94.35
2022-07-29T09:58:59.051Z,94.65
2022-07-29T09:59:59.048Z,94.75
2022-07-29T10:00:59.096Z,94.55
2022-07-29T10:01:59.307Z,94.05
2022-07-29T10:02:59.131Z,94.35
2022-07-29T10:03:59.043Z,94.25
2022-07-29T10:04:59.044Z,94.25
2022-07-29T10:05:59.041Z,94.25
2022-07-29T10:07:04.218Z,94.45
2022-07-29T10:07:59.041Z,94.55
2022-07-29T10:08:59.038Z,94.55
2022-07-29T10:09:59.036Z,94.95
2022-07-29T10:10:59.037Z,94.95
2022-07-29T10:11:59.321Z,94.85
2022-07-29T10:13:03.016Z,95.06
2022-07-29T10:13:59.031Z,95.36
2022-07-29T10:14:59.033Z,94.55
2022-07-29T10:15:59.082Z,94.59
2022-07-29T10:16:59.028Z,95.00
2022-07-29T10:17:59.041Z,95.26
2022-07-29T10:18:59.030Z,95.56
2022-07-29T10:19:59.026Z,95.50
2022-07-29T10:20:59.026Z,95.30
2022-07-29T10:21:59.232Z,95.46
2022-07-29T10:22:59.037Z,95.26
2022-07-29T10:24:00.958Z,95.61
2022-07-29T10:24:59.016Z,95.00
2022-07-29T10:25:59.016Z,94.59
2022-07-29T10:26:59.019Z,95.26
2022-07-29T10:27:59.019Z,95.70
2022-07-29T10:28:59.014Z,95.86
2022-07-29T10:29:59.017Z,95.90
2022-07-29T10:30:59.047Z,96.41
2022-07-29T10:31:59.299Z,96.06
2022-07-29T10:32:59.007Z,96.26
2022-07-29T10:33:59.005Z,96.41
2022-07-29T10:34:59.006Z,96.11
2022-07-29T10:35:59.008Z,94.90
2022-07-29T10:36:59.005Z,95.06
2022-07-29T10:37:59.005Z,95.66
2022-07-29T10:38:58.999Z,95.96
2022-07-29T10:39:59.002Z,96.06
2022-07-29T10:40:58.998Z,96.47
2022-07-29T10:41:59.285Z,96.47
2022-07-29T10:42:58.996Z,96.47
2022-07-29T10:43:58.998Z,95.86
2022-07-29T10:44:58.992Z,95.15
2022-07-29T10:45:58.993Z,94.95
2022-07-29T10:46:59.046Z,95.06
2022-07-29T10:47:58.992Z,94.85
2022-07-29T10:48:59.028Z,95.15
2022-07-29T10:49:58.995Z,94.91
2022-07-29T10:50:58.986Z,95.61
2022-07-29T10:51:59.211Z,95.51
2022-07-29T10:52:58.984Z,95.56
2022-07-29T10:53:58.982Z,95.36
2022-07-29T10:54:58.981Z,95.01
2022-07-29T10:55:58.982Z,94.85
2022-07-29T10:56:58.977Z,93.80
2022-07-29T10:57:58.977Z,93.70
2022-07-29T10:58:58.974Z,92.49
2022-07-29T10:59:58.977Z,92.23
2022-07-29T11:00:58.973Z,92.19
2022-07-29T11:02:35.301Z,92.13
2022-07-29T11:02:59.123Z,90.92
2022-07-29T11:03:58.971Z,90.72
2022-07-29T11:04:58.971Z,88.81
2022-07-29T11:05:59.385Z,90.82
2022-07-29T11:06:58.969Z,90.82
2022-07-29T11:07:58.968Z,90.78
2022-07-29T11:08:58.962Z,90.78
2022-07-29T11:09:58.965Z,90.22
2022-07-29T11:10:58.958Z,90.62
2022-07-29T11:11:59.042Z,91.99
2022-07-29T11:12:58.956Z,93.19
2022-07-29T11:13:58.964Z,93.35
2022-07-29T11:14:58.954Z,93.26
2022-07-29T11:15:58.957Z,91.64
2022-07-29T11:16:58.953Z,91.94
2022-07-29T11:17:59.222Z,92.65
2022-07-29T11:18:58.948Z,92.60
2022-07-29T11:19:58.950Z,92.25
2022-07-29T11:20:58.947Z,92.30
2022-07-29T11:21:58.951Z,92.91
2022-07-29T11:22:58.945Z,92.26
2022-07-29T11:23:58.946Z,93.07
2022-07-29T11:24:58.944Z,90.15
2022-07-29T11:25:58.943Z,90.34
2022-07-29T11:27:00.731Z,88.13
2022-07-29T11:27:58.948Z,89.14
2022-07-29T11:28:58.941Z,88.64
2022-07-29T11:29:58.941Z,90.25
2022-07-29T11:30:58.936Z,89.50
2022-07-29T11:31:59.129Z,88.70
2022-07-29T11:32:58.945Z,89.10
2022-07-29T11:34:03.816Z,85.17
2022-07-29T11:34:58.929Z,84.88
2022-07-29T11:36:00.875Z,85.48
2022-07-29T11:36:59.052Z,83.97
2022-07-29T11:37:59.023Z,83.03
2022-07-29T11:38:58.931Z,84.13
2022-07-29T11:40:02.032Z,85.64
2022-07-29T11:40:58.924Z,86.85
2022-07-29T11:42:03.139Z,86.44
2022-07-29T11:42:58.923Z,86.44
2022-07-29T11:43:59.048Z,86.65
2022-07-29T11:44:58.921Z,84.63
2022-07-29T11:45:58.923Z,83.89
2022-07-29T11:46:58.920Z,84.59
2022-07-29T11:48:05.238Z,83.29
2022-07-29T11:48:58.978Z,83.09
2022-07-29T11:49:59.943Z,83.89
2022-07-29T11:50:58.920Z,82.78
2022-07-29T11:51:59.221Z,83.89
2022-07-29T11:52:58.913Z,82.78
2022-07-29T11:54:02.568Z,82.58
2022-07-29T11:55:00.795Z,82.98
2022-07-29T11:55:58.921Z,83.04
2022-07-29T11:56:58.911Z,82.95
2022-07-29T11:58:03.736Z,85.75
2022-07-29T11:58:58.906Z,82.95
2022-07-29T12:00:04.510Z,80.54
2022-07-29T12:00:58.903Z,82.34
2022-07-29T12:02:33.355Z,80.83
2022-07-29T12:02:58.942Z,81.10
2022-07-29T12:03:58.922Z,80.80
2022-07-29T12:04:58.900Z,81.50
2022-07-29T12:05:58.900Z,82.57
2022-07-29T12:07:00.451Z,82.06
2022-07-29T12:07:58.899Z,80.26
2022-07-29T12:08:58.902Z,79.36
2022-07-29T12:09:58.896Z,80.42
2022-07-29T12:10:58.906Z,81.93
2022-07-29T12:12:03.278Z,82.53
2022-07-29T12:12:58.897Z,80.22
2022-07-29T12:13:58.890Z,80.82
2022-07-29T12:14:58.896Z,78.31
2022-07-29T12:16:02.538Z,80.32
2022-07-29T12:16:58.914Z,79.22
2022-07-29T12:18:02.241Z,79.62
2022-07-29T12:18:59.226Z,79.42
2022-07-29T12:19:58.887Z,79.02
2022-07-29T12:20:58.882Z,77.87
2022-07-29T12:21:59.636Z,76.01
2022-07-29T12:22:58.886Z,77.17
2022-07-29T12:24:05.875Z,78.68
2022-07-29T12:25:11.442Z,77.28
2022-07-29T12:25:58.885Z,76.78
2022-07-29T12:26:58.881Z,75.37
2022-07-29T12:27:58.882Z,74.17
2022-07-29T12:28:58.876Z,75.47
2022-07-29T12:29:58.884Z,75.57
2022-07-29T12:30:58.878Z,75.54
2022-07-29T12:31:58.965Z,75.97
2022-07-29T12:32:58.872Z,74.13
2022-07-29T12:33:58.874Z,75.43
2022-07-29T12:34:58.873Z,74.54
2022-07-29T12:36:06.047Z,75.63
2022-07-29T12:36:58.875Z,75.84
2022-07-29T12:37:58.868Z,74.43
2022-07-29T12:38:59.219Z,75.23
2022-07-29T12:39:58.874Z,73.90
2022-07-29T12:40:58.868Z,76.20
2022-07-29T12:42:03.935Z,75.40
2022-07-29T12:42:58.864Z,75.70
2022-07-29T12:43:58.864Z,72.19
2022-07-29T12:44:58.862Z,74.30
2022-07-29T12:45:58.869Z,72.69
2022-07-29T12:46:58.919Z,70.89
2022-07-29T12:47:58.864Z,73.90
2022-07-29T12:48:58.892Z,73.90
2022-07-29T12:49:58.861Z,75.90
2022-07-29T12:50:58.864Z,72.46
2022-07-29T12:51:59.306Z,72.30
2022-07-29T12:52:58.855Z,70.59
2022-07-29T12:53:58.858Z,70.19